sensor_id;sensor_type;location;lat;lon;timestamp;P1;durP1;ratioP1;P2;durP2;ratioP2
34134;SDS011;20410;55.578;12.968;2023-04-25T00:01:00;5.67;;;4.67;;
34134;SDS011;20410;55.578;12.968;2023-04-25T00:03:27;7.17;;;4.77;;
34134;SDS011;20410;55.578;12.968;2023-04-25T00:05:54;6.47;;;5.10;;
34134;SDS011;20410;55.578;12.968;2023-04-25T00:08:21;7.87;;;5.47;;
34134;SDS011;20410;55.578;12.968;2023-04-25T00:10:47;9.60;;;5.17;;
34134;SDS011;20410;55.578;12.968;2023-04-25T00:13:13;7.20;;;5.83;;
34134;SDS011;20410;55.578;12.968;2023-04-25T00:15:39;8.73;;;4.90;;
34134;SDS011;20410;55.578;12.968;2023-04-25T00:18:06;5.63;;;4.53;;
34134;SDS011;20410;55.578;12.968;2023-04-25T00:20:32;9.00;;;4.47;;
34134;SDS011;20410;55.578;12.968;2023-04-25T00:22:58;5.60;;;3.13;;
34134;SDS011;20410;55.578;12.968;2023-04-25T00:25:24;7.07;;;2.63;;
34134;SDS011;20410;55.578;12.968;2023-04-25T00:27:50;5.07;;;2.57;;
34134;SDS011;20410;55.578;12.968;2023-04-25T00:30:15;4.37;;;2.60;;
34134;SDS011;20410;55.578;12.968;2023-04-25T00:32:41;4.07;;;2.70;;
34134;SDS011;20410;55.578;12.968;2023-04-25T00:35:06;4.10;;;3.20;;
34134;SDS011;20410;55.578;12.968;2023-04-25T00:37:32;5.70;;;3.33;;
34134;SDS011;20410;55.578;12.968;2023-04-25T00:39:58;4.40;;;4.00;;
34134;SDS011;20410;55.578;12.968;2023-04-25T00:42:24;6.07;;;4.00;;
34134;SDS011;20410;55.578;12.968;2023-04-25T00:44:51;6.20;;;3.97;;
34134;SDS011;20410;55.578;12.968;2023-04-25T00:47:17;7.83;;;4.00;;
34134;SDS011;20410;55.578;12.968;2023-04-25T00:49:43;6.13;;;3.57;;
34134;SDS011;20410;55.578;12.968;2023-04-25T00:52:09;4.63;;;4.07;;
34134;SDS011;20410;55.578;12.968;2023-04-25T00:54:36;4.83;;;3.70;;
34134;SDS011;20410;55.578;12.968;2023-04-25T00:57:02;4.17;;;3.43;;
34134;SDS011;20410;55.578;12.968;2023-04-25T00:59:28;3.97;;;3.20;;
34134;SDS011;20410;55.578;12.968;2023-04-25T01:01:55;4.97;;;3.47;;
34134;SDS011;20410;55.578;12.968;2023-04-25T01:04:21;5.77;;;3.60;;
34134;SDS011;20410;55.578;12.968;2023-04-25T01:06:47;4.47;;;3.80;;
34134;SDS011;20410;55.578;12.968;2023-04-25T01:09:13;4.13;;;3.37;;
34134;SDS011;20410;55.578;12.968;2023-04-25T01:11:39;5.73;;;3.70;;
34134;SDS011;20410;55.578;12.968;2023-04-25T01:14:05;5.43;;;3.67;;
34134;SDS011;20410;55.578;12.968;2023-04-25T01:16:31;5.70;;;3.67;;
34134;SDS011;20410;55.578;12.968;2023-04-25T01:18:58;4.80;;;3.50;;
34134;SDS011;20410;55.578;12.968;2023-04-25T01:21:24;5.17;;;3.67;;
34134;SDS011;20410;55.578;12.968;2023-04-25T01:23:52;6.10;;;3.70;;
34134;SDS011;20410;55.578;12.968;2023-04-25T01:26:19;7.03;;;4.13;;
34134;SDS011;20410;55.578;12.968;2023-04-25T01:28:46;5.43;;;3.30;;
34134;SDS011;20410;55.578;12.968;2023-04-25T01:31:12;3.80;;;2.93;;
34134;SDS011;20410;55.578;12.968;2023-04-25T01:33:39;4.73;;;3.53;;
34134;SDS011;20410;55.578;12.968;2023-04-25T01:36:05;3.63;;;2.70;;
34134;SDS011;20410;55.578;12.968;2023-04-25T01:38:31;9.00;;;3.57;;
34134;SDS011;20410;55.578;12.968;2023-04-25T01:40:56;5.90;;;3.10;;
34134;SDS011;20410;55.578;12.968;2023-04-25T01:43:22;3.00;;;2.80;;
34134;SDS011;20410;55.578;12.968;2023-04-25T01:45:48;4.93;;;3.10;;
34134;SDS011;20410;55.578;12.968;2023-04-25T01:48:15;4.07;;;3.10;;
34134;SDS011;20410;55.578;12.968;2023-04-25T01:50:41;5.53;;;3.23;;
34134;SDS011;20410;55.578;12.968;2023-04-25T01:53:06;5.20;;;2.90;;
34134;SDS011;20410;55.578;12.968;2023-04-25T01:55:34;3.97;;;2.50;;
34134;SDS011;20410;55.578;12.968;2023-04-25T01:58:01;3.47;;;2.83;;
34134;SDS011;20410;55.578;12.968;2023-04-25T02:00:28;5.73;;;2.97;;
34134;SDS011;20410;55.578;12.968;2023-04-25T02:02:53;4.33;;;3.20;;
34134;SDS011;20410;55.578;12.968;2023-04-25T02:05:22;3.87;;;2.57;;
34134;SDS011;20410;55.578;12.968;2023-04-25T02:07:48;4.10;;;3.10;;
34134;SDS011;20410;55.578;12.968;2023-04-25T02:10:13;3.77;;;2.90;;
34134;SDS011;20410;55.578;12.968;2023-04-25T02:12:39;3.47;;;2.70;;
34134;SDS011;20410;55.578;12.968;2023-04-25T02:15:05;8.03;;;3.27;;
34134;SDS011;20410;55.578;12.968;2023-04-25T02:17:31;6.03;;;3.57;;
34134;SDS011;20410;55.578;12.968;2023-04-25T02:19:57;4.27;;;3.07;;
34134;SDS011;20410;55.578;12.968;2023-04-25T02:22:23;5.00;;;3.30;;
34134;SDS011;20410;55.578;12.968;2023-04-25T02:24:48;9.13;;;4.37;;
34134;SDS011;20410;55.578;12.968;2023-04-25T02:27:14;7.00;;;4.50;;
34134;SDS011;20410;55.578;12.968;2023-04-25T02:29:40;7.97;;;4.30;;
34134;SDS011;20410;55.578;12.968;2023-04-25T02:32:05;10.97;;;4.83;;
34134;SDS011;20410;55.578;12.968;2023-04-25T02:34:31;8.10;;;5.00;;
34134;SDS011;20410;55.578;12.968;2023-04-25T02:36:57;12.00;;;4.90;;
34134;SDS011;20410;55.578;12.968;2023-04-25T02:39:22;8.30;;;4.90;;
34134;SDS011;20410;55.578;12.968;2023-04-25T02:41:50;7.67;;;5.17;;
34134;SDS011;20410;55.578;12.968;2023-04-25T02:44:15;12.57;;;5.03;;
34134;SDS011;20410;55.578;12.968;2023-04-25T02:46:41;7.87;;;4.77;;
34134;SDS011;20410;55.578;12.968;2023-04-25T02:49:06;10.47;;;4.43;;
34134;SDS011;20410;55.578;12.968;2023-04-25T02:51:32;9.27;;;4.60;;
34134;SDS011;20410;55.578;12.968;2023-04-25T02:53:58;8.43;;;4.80;;
34134;SDS011;20410;55.578;12.968;2023-04-25T02:56:23;10.80;;;5.23;;
34134;SDS011;20410;55.578;12.968;2023-04-25T02:58:51;8.93;;;4.40;;
34134;SDS011;20410;55.578;12.968;2023-04-25T03:01:17;9.07;;;4.80;;
34134;SDS011;20410;55.578;12.968;2023-04-25T03:03:42;11.17;;;5.53;;
34134;SDS011;20410;55.578;12.968;2023-04-25T03:06:08;10.57;;;5.20;;
34134;SDS011;20410;55.578;12.968;2023-04-25T03:08:33;13.47;;;5.93;;
34134;SDS011;20410;55.578;12.968;2023-04-25T03:10:59;12.23;;;5.67;;
34134;SDS011;20410;55.578;12.968;2023-04-25T03:13:25;14.27;;;5.67;;
34134;SDS011;20410;55.578;12.968;2023-04-25T03:15:52;11.30;;;5.30;;
34134;SDS011;20410;55.578;12.968;2023-04-25T03:18:18;9.13;;;5.00;;
34134;SDS011;20410;55.578;12.968;2023-04-25T03:20:43;8.47;;;4.20;;
34134;SDS011;20410;55.578;12.968;2023-04-25T03:23:09;10.83;;;4.50;;
34134;SDS011;20410;55.578;12.968;2023-04-25T03:25:34;9.43;;;4.67;;
34134;SDS011;20410;55.578;12.968;2023-04-25T03:28:00;10.53;;;4.80;;
34134;SDS011;20410;55.578;12.968;2023-04-25T03:30:26;10.07;;;4.87;;
34134;SDS011;20410;55.578;12.968;2023-04-25T03:32:51;11.87;;;4.67;;
34134;SDS011;20410;55.578;12.968;2023-04-25T03:35:17;10.97;;;4.80;;
34134;SDS011;20410;55.578;12.968;2023-04-25T03:37:42;8.63;;;4.87;;
34134;SDS011;20410;55.578;12.968;2023-04-25T03:40:11;12.27;;;5.20;;
34134;SDS011;20410;55.578;12.968;2023-04-25T03:42:36;8.37;;;4.93;;
34134;SDS011;20410;55.578;12.968;2023-04-25T03:45:02;11.43;;;5.03;;
34134;SDS011;20410;55.578;12.968;2023-04-25T03:47:28;14.30;;;5.80;;
34134;SDS011;20410;55.578;12.968;2023-04-25T03:49:54;9.47;;;4.50;;
34134;SDS011;20410;55.578;12.968;2023-04-25T03:52:20;9.27;;;4.53;;
34134;SDS011;20410;55.578;12.968;2023-04-25T03:54:45;12.60;;;5.03;;
34134;SDS011;20410;55.578;12.968;2023-04-25T03:57:11;11.33;;;4.93;;
34134;SDS011;20410;55.578;12.968;2023-04-25T03:59:36;12.73;;;4.70;;
34134;SDS011;20410;55.578;12.968;2023-04-25T04:02:02;12.47;;;5.00;;
34134;SDS011;20410;55.578;12.968;2023-04-25T04:04:27;15.17;;;5.27;;
34134;SDS011;20410;55.578;12.968;2023-04-25T04:06:53;11.63;;;4.20;;
34134;SDS011;20410;55.578;12.968;2023-04-25T04:09:19;12.13;;;4.60;;
34134;SDS011;20410;55.578;12.968;2023-04-25T04:11:45;10.40;;;4.17;;
34134;SDS011;20410;55.578;12.968;2023-04-25T04:14:11;13.63;;;4.80;;
34134;SDS011;20410;55.578;12.968;2023-04-25T04:16:36;11.03;;;4.20;;
34134;SDS011;20410;55.578;12.968;2023-04-25T04:19:02;13.03;;;4.33;;
34134;SDS011;20410;55.578;12.968;2023-04-25T04:21:28;13.40;;;4.63;;
34134;SDS011;20410;55.578;12.968;2023-04-25T04:23:53;15.93;;;4.80;;
34134;SDS011;20410;55.578;12.968;2023-04-25T04:26:19;8.43;;;4.47;;
34134;SDS011;20410;55.578;12.968;2023-04-25T04:28:48;13.37;;;5.17;;
34134;SDS011;20410;55.578;12.968;2023-04-25T04:31:15;10.73;;;4.60;;
34134;SDS011;20410;55.578;12.968;2023-04-25T04:33:43;13.00;;;5.03;;
34134;SDS011;20410;55.578;12.968;2023-04-25T04:36:09;11.90;;;4.57;;
34134;SDS011;20410;55.578;12.968;2023-04-25T04:38:35;12.03;;;4.83;;
34134;SDS011;20410;55.578;12.968;2023-04-25T04:41:01;12.00;;;4.83;;
34134;SDS011;20410;55.578;12.968;2023-04-25T04:43:28;13.80;;;4.17;;
34134;SDS011;20410;55.578;12.968;2023-04-25T04:45:54;12.97;;;3.90;;
34134;SDS011;20410;55.578;12.968;2023-04-25T04:48:21;10.10;;;3.60;;
34134;SDS011;20410;55.578;12.968;2023-04-25T04:50:47;14.40;;;3.80;;
34134;SDS011;20410;55.578;12.968;2023-04-25T04:53:12;12.83;;;4.10;;
34134;SDS011;20410;55.578;12.968;2023-04-25T04:55:38;15.63;;;4.10;;
34134;SDS011;20410;55.578;12.968;2023-04-25T04:58:06;14.23;;;4.27;;
34134;SDS011;20410;55.578;12.968;2023-04-25T05:00:32;12.13;;;3.37;;
34134;SDS011;20410;55.578;12.968;2023-04-25T05:02:58;14.43;;;4.17;;
34134;SDS011;20410;55.578;12.968;2023-04-25T05:05:24;11.97;;;3.20;;
34134;SDS011;20410;55.578;12.968;2023-04-25T05:07:49;10.03;;;3.53;;
34134;SDS011;20410;55.578;12.968;2023-04-25T05:10:16;11.47;;;4.00;;
34134;SDS011;20410;55.578;12.968;2023-04-25T05:12:45;16.60;;;4.00;;
34134;SDS011;20410;55.578;12.968;2023-04-25T05:15:10;13.70;;;4.47;;
34134;SDS011;20410;55.578;12.968;2023-04-25T05:17:36;9.00;;;3.80;;
34134;SDS011;20410;55.578;12.968;2023-04-25T05:20:04;11.87;;;3.50;;
34134;SDS011;20410;55.578;12.968;2023-04-25T05:22:31;9.10;;;3.17;;
34134;SDS011;20410;55.578;12.968;2023-04-25T05:24:56;10.37;;;3.20;;
34134;SDS011;20410;55.578;12.968;2023-04-25T05:27:22;11.73;;;4.10;;
34134;SDS011;20410;55.578;12.968;2023-04-25T05:29:48;11.77;;;4.13;;
34134;SDS011;20410;55.578;12.968;2023-04-25T05:32:14;12.30;;;4.60;;
34134;SDS011;20410;55.578;12.968;2023-04-25T05:34:40;14.03;;;4.30;;
34134;SDS011;20410;55.578;12.968;2023-04-25T05:37:06;8.93;;;3.47;;
34134;SDS011;20410;55.578;12.968;2023-04-25T05:39:32;12.33;;;3.83;;
34134;SDS011;20410;55.578;12.968;2023-04-25T05:41:57;13.47;;;4.20;;
34134;SDS011;20410;55.578;12.968;2023-04-25T05:44:23;10.63;;;3.90;;
34134;SDS011;20410;55.578;12.968;2023-04-25T05:46:49;14.17;;;3.63;;
34134;SDS011;20410;55.578;12.968;2023-04-25T05:49:14;11.77;;;3.60;;
34134;SDS011;20410;55.578;12.968;2023-04-25T05:51:40;8.77;;;3.60;;
34134;SDS011;20410;55.578;12.968;2023-04-25T05:54:05;9.37;;;3.60;;
34134;SDS011;20410;55.578;12.968;2023-04-25T05:56:31;10.27;;;3.77;;
34134;SDS011;20410;55.578;12.968;2023-04-25T05:58:57;10.73;;;3.70;;
34134;SDS011;20410;55.578;12.968;2023-04-25T06:01:23;13.27;;;4.00;;
34134;SDS011;20410;55.578;12.968;2023-04-25T06:03:48;13.40;;;4.40;;
34134;SDS011;20410;55.578;12.968;2023-04-25T06:06:14;7.77;;;3.30;;
34134;SDS011;20410;55.578;12.968;2023-04-25T06:08:40;11.00;;;4.80;;
34134;SDS011;20410;55.578;12.968;2023-04-25T06:11:06;13.83;;;4.00;;
34134;SDS011;20410;55.578;12.968;2023-04-25T06:13:32;12.37;;;4.20;;
34134;SDS011;20410;55.578;12.968;2023-04-25T06:15:58;15.13;;;3.80;;
34134;SDS011;20410;55.578;12.968;2023-04-25T06:18:24;12.97;;;4.37;;
34134;SDS011;20410;55.578;12.968;2023-04-25T06:20:49;10.97;;;4.33;;
34134;SDS011;20410;55.578;12.968;2023-04-25T06:23:15;13.87;;;4.00;;
34134;SDS011;20410;55.578;12.968;2023-04-25T06:25:41;15.10;;;4.93;;
34134;SDS011;20410;55.578;12.968;2023-04-25T06:28:06;11.73;;;4.03;;
34134;SDS011;20410;55.578;12.968;2023-04-25T06:30:32;17.13;;;4.30;;
34134;SDS011;20410;55.578;12.968;2023-04-25T06:32:58;13.10;;;4.17;;
34134;SDS011;20410;55.578;12.968;2023-04-25T06:35:23;12.03;;;4.00;;
34134;SDS011;20410;55.578;12.968;2023-04-25T06:37:49;13.23;;;3.90;;
34134;SDS011;20410;55.578;12.968;2023-04-25T06:40:14;19.37;;;4.43;;
34134;SDS011;20410;55.578;12.968;2023-04-25T06:42:42;13.87;;;4.20;;
34134;SDS011;20410;55.578;12.968;2023-04-25T06:45:08;19.67;;;4.53;;
34134;SDS011;20410;55.578;12.968;2023-04-25T06:47:34;14.30;;;4.50;;
34134;SDS011;20410;55.578;12.968;2023-04-25T06:49:59;14.03;;;4.23;;
34134;SDS011;20410;55.578;12.968;2023-04-25T06:52:25;13.93;;;4.17;;
34134;SDS011;20410;55.578;12.968;2023-04-25T06:54:50;13.03;;;3.70;;
34134;SDS011;20410;55.578;12.968;2023-04-25T06:57:16;13.10;;;4.30;;
34134;SDS011;20410;55.578;12.968;2023-04-25T06:59:42;13.43;;;4.53;;
34134;SDS011;20410;55.578;12.968;2023-04-25T07:02:07;16.27;;;4.73;;
34134;SDS011;20410;55.578;12.968;2023-04-25T07:04:33;12.47;;;3.77;;
34134;SDS011;20410;55.578;12.968;2023-04-25T07:06:59;19.80;;;4.47;;
34134;SDS011;20410;55.578;12.968;2023-04-25T07:09:27;14.10;;;4.70;;
34134;SDS011;20410;55.578;12.968;2023-04-25T07:11:53;19.07;;;4.97;;
34134;SDS011;20410;55.578;12.968;2023-04-25T07:14:18;17.97;;;5.70;;
34134;SDS011;20410;55.578;12.968;2023-04-25T07:16:45;20.30;;;4.70;;
34134;SDS011;20410;55.578;12.968;2023-04-25T07:19:10;16.83;;;4.20;;
34134;SDS011;20410;55.578;12.968;2023-04-25T07:21:36;16.30;;;4.33;;
34134;SDS011;20410;55.578;12.968;2023-04-25T07:24:01;11.13;;;4.53;;
34134;SDS011;20410;55.578;12.968;2023-04-25T07:26:27;14.87;;;4.17;;
34134;SDS011;20410;55.578;12.968;2023-04-25T07:28:53;18.33;;;5.00;;
34134;SDS011;20410;55.578;12.968;2023-04-25T07:31:19;20.87;;;4.67;;
34134;SDS011;20410;55.578;12.968;2023-04-25T07:33:45;16.60;;;4.83;;
34134;SDS011;20410;55.578;12.968;2023-04-25T07:36:11;13.60;;;4.00;;
34134;SDS011;20410;55.578;12.968;2023-04-25T07:38:37;18.03;;;5.07;;
34134;SDS011;20410;55.578;12.968;2023-04-25T07:41:03;18.77;;;4.67;;
34134;SDS011;20410;55.578;12.968;2023-04-25T07:43:29;15.73;;;4.63;;
34134;SDS011;20410;55.578;12.968;2023-04-25T07:45:55;16.30;;;4.93;;
34134;SDS011;20410;55.578;12.968;2023-04-25T07:48:21;21.40;;;5.57;;
34134;SDS011;20410;55.578;12.968;2023-04-25T07:50:47;14.67;;;4.70;;
34134;SDS011;20410;55.578;12.968;2023-04-25T07:53:13;19.50;;;5.40;;
34134;SDS011;20410;55.578;12.968;2023-04-25T07:55:38;18.43;;;4.93;;
34134;SDS011;20410;55.578;12.968;2023-04-25T07:58:08;18.20;;;4.90;;
34134;SDS011;20410;55.578;12.968;2023-04-25T08:00:34;13.87;;;4.80;;
34134;SDS011;20410;55.578;12.968;2023-04-25T08:03:00;20.17;;;5.70;;
34134;SDS011;20410;55.578;12.968;2023-04-25T08:05:26;22.67;;;6.83;;
34134;SDS011;20410;55.578;12.968;2023-04-25T08:07:51;16.93;;;5.63;;
34134;SDS011;20410;55.578;12.968;2023-04-25T08:10:17;16.67;;;5.40;;
34134;SDS011;20410;55.578;12.968;2023-04-25T08:12:43;22.57;;;5.87;;
34134;SDS011;20410;55.578;12.968;2023-04-25T08:15:08;21.33;;;5.63;;
34134;SDS011;20410;55.578;12.968;2023-04-25T08:17:34;21.13;;;5.80;;
34134;SDS011;20410;55.578;12.968;2023-04-25T08:20:00;15.50;;;5.00;;
34134;SDS011;20410;55.578;12.968;2023-04-25T08:22:26;17.90;;;5.50;;
34134;SDS011;20410;55.578;12.968;2023-04-25T08:24:53;16.90;;;5.27;;
34134;SDS011;20410;55.578;12.968;2023-04-25T08:27:19;15.73;;;5.20;;
34134;SDS011;20410;55.578;12.968;2023-04-25T08:29:46;19.13;;;5.30;;
34134;SDS011;20410;55.578;12.968;2023-04-25T08:32:12;18.53;;;4.47;;
34134;SDS011;20410;55.578;12.968;2023-04-25T08:34:38;19.50;;;5.67;;
34134;SDS011;20410;55.578;12.968;2023-04-25T08:37:07;22.97;;;5.63;;
34134;SDS011;20410;55.578;12.968;2023-04-25T08:39:34;20.13;;;5.70;;
34134;SDS011;20410;55.578;12.968;2023-04-25T08:42:05;18.00;;;5.27;;
34134;SDS011;20410;55.578;12.968;2023-04-25T08:44:35;16.90;;;5.13;;
34134;SDS011;20410;55.578;12.968;2023-04-25T08:47:02;26.00;;;5.90;;
34134;SDS011;20410;55.578;12.968;2023-04-25T08:49:30;22.47;;;5.67;;
34134;SDS011;20410;55.578;12.968;2023-04-25T08:51:58;18.57;;;5.67;;
34134;SDS011;20410;55.578;12.968;2023-04-25T08:54:25;16.77;;;4.77;;
34134;SDS011;20410;55.578;12.968;2023-04-25T08:56:54;13.00;;;4.80;;
34134;SDS011;20410;55.578;12.968;2023-04-25T08:59:21;14.80;;;4.97;;
34134;SDS011;20410;55.578;12.968;2023-04-25T09:01:48;18.03;;;4.70;;
34134;SDS011;20410;55.578;12.968;2023-04-25T09:04:14;16.13;;;5.13;;
34134;SDS011;20410;55.578;12.968;2023-04-25T09:06:40;15.70;;;4.67;;
34134;SDS011;20410;55.578;12.968;2023-04-25T09:09:07;16.87;;;4.57;;
34134;SDS011;20410;55.578;12.968;2023-04-25T09:11:35;18.70;;;4.40;;
34134;SDS011;20410;55.578;12.968;2023-04-25T09:14:14;17.33;;;4.67;;
34134;SDS011;20410;55.578;12.968;2023-04-25T09:19:34;12.87;;;3.77;;
34134;SDS011;20410;55.578;12.968;2023-04-25T09:22:03;13.47;;;4.47;;
34134;SDS011;20410;55.578;12.968;2023-04-25T09:24:39;14.47;;;4.07;;
34134;SDS011;20410;55.578;12.968;2023-04-25T09:27:09;11.00;;;3.50;;
34134;SDS011;20410;55.578;12.968;2023-04-25T09:29:40;8.93;;;3.47;;
34134;SDS011;20410;55.578;12.968;2023-04-25T09:32:17;14.40;;;4.60;;
34134;SDS011;20410;55.578;12.968;2023-04-25T09:34:44;12.27;;;3.87;;
34134;SDS011;20410;55.578;12.968;2023-04-25T09:37:28;15.07;;;3.97;;
34134;SDS011;20410;55.578;12.968;2023-04-25T09:42:25;18.47;;;5.53;;
34134;SDS011;20410;55.578;12.968;2023-04-25T09:44:52;14.70;;;3.87;;
34134;SDS011;20410;55.578;12.968;2023-04-25T09:47:19;11.93;;;3.97;;
34134;SDS011;20410;55.578;12.968;2023-04-25T09:49:48;11.00;;;3.83;;
34134;SDS011;20410;55.578;12.968;2023-04-25T09:52:15;14.03;;;4.33;;
34134;SDS011;20410;55.578;12.968;2023-04-25T09:54:42;18.17;;;4.87;;
34134;SDS011;20410;55.578;12.968;2023-04-25T09:57:13;14.97;;;4.70;;
34134;SDS011;20410;55.578;12.968;2023-04-25T09:59:43;15.13;;;4.60;;
34134;SDS011;20410;55.578;12.968;2023-04-25T10:02:10;17.37;;;4.60;;
34134;SDS011;20410;55.578;12.968;2023-04-25T10:04:37;12.00;;;4.03;;
34134;SDS011;20410;55.578;12.968;2023-04-25T10:07:05;13.00;;;4.23;;
34134;SDS011;20410;55.578;12.968;2023-04-25T10:09:31;11.57;;;3.73;;
34134;SDS011;20410;55.578;12.968;2023-04-25T10:12:00;14.53;;;3.93;;
34134;SDS011;20410;55.578;12.968;2023-04-25T10:14:29;14.37;;;4.33;;
34134;SDS011;20410;55.578;12.968;2023-04-25T10:16:56;12.07;;;3.53;;
34134;SDS011;20410;55.578;12.968;2023-04-25T10:19:23;11.47;;;3.80;;
34134;SDS011;20410;55.578;12.968;2023-04-25T10:21:51;14.73;;;3.67;;
34134;SDS011;20410;55.578;12.968;2023-04-25T10:24:17;14.13;;;3.97;;
34134;SDS011;20410;55.578;12.968;2023-04-25T10:26:44;8.93;;;4.10;;
34134;SDS011;20410;55.578;12.968;2023-04-25T10:29:10;12.47;;;4.20;;
34134;SDS011;20410;55.578;12.968;2023-04-25T10:31:44;16.03;;;4.13;;
34134;SDS011;20410;55.578;12.968;2023-04-25T10:34:12;11.67;;;3.97;;
34134;SDS011;20410;55.578;12.968;2023-04-25T10:36:37;10.60;;;3.87;;
34134;SDS011;20410;55.578;12.968;2023-04-25T10:39:06;11.77;;;3.63;;
34134;SDS011;20410;55.578;12.968;2023-04-25T10:41:46;12.73;;;3.97;;
34134;SDS011;20410;55.578;12.968;2023-04-25T10:44:13;15.20;;;4.57;;
34134;SDS011;20410;55.578;12.968;2023-04-25T10:46:39;18.53;;;5.30;;
34134;SDS011;20410;55.578;12.968;2023-04-25T10:49:05;14.60;;;4.03;;
34134;SDS011;20410;55.578;12.968;2023-04-25T10:51:35;11.40;;;4.33;;
34134;SDS011;20410;55.578;12.968;2023-04-25T10:54:05;13.03;;;3.80;;
34134;SDS011;20410;55.578;12.968;2023-04-25T10:56:39;16.90;;;3.77;;
34134;SDS011;20410;55.578;12.968;2023-04-25T10:59:13;15.40;;;4.30;;
34134;SDS011;20410;55.578;12.968;2023-04-25T11:01:41;11.83;;;4.03;;
34134;SDS011;20410;55.578;12.968;2023-04-25T11:04:20;12.37;;;4.27;;
34134;SDS011;20410;55.578;12.968;2023-04-25T11:09:42;11.47;;;3.50;;
34134;SDS011;20410;55.578;12.968;2023-04-25T11:12:10;16.43;;;3.70;;
34134;SDS011;20410;55.578;12.968;2023-04-25T11:14:37;8.27;;;3.50;;
34134;SDS011;20410;55.578;12.968;2023-04-25T11:17:03;10.80;;;3.53;;
34134;SDS011;20410;55.578;12.968;2023-04-25T11:19:29;20.57;;;4.07;;
34134;SDS011;20410;55.578;12.968;2023-04-25T11:21:58;14.27;;;3.90;;
34134;SDS011;20410;55.578;12.968;2023-04-25T11:24:34;14.57;;;4.20;;
34134;SDS011;20410;55.578;12.968;2023-04-25T11:27:02;14.57;;;3.83;;
34134;SDS011;20410;55.578;12.968;2023-04-25T11:29:32;8.90;;;3.40;;
34134;SDS011;20410;55.578;12.968;2023-04-25T11:31:59;13.20;;;3.50;;
34134;SDS011;20410;55.578;12.968;2023-04-25T11:34:26;10.67;;;3.43;;
34134;SDS011;20410;55.578;12.968;2023-04-25T11:36:52;14.40;;;3.20;;
34134;SDS011;20410;55.578;12.968;2023-04-25T11:39:19;10.33;;;3.20;;
34134;SDS011;20410;55.578;12.968;2023-04-25T11:41:44;9.53;;;3.50;;
34134;SDS011;20410;55.578;12.968;2023-04-25T11:44:11;8.40;;;2.83;;
34134;SDS011;20410;55.578;12.968;2023-04-25T11:46:40;15.53;;;4.30;;
34134;SDS011;20410;55.578;12.968;2023-04-25T11:49:05;11.37;;;3.23;;
34134;SDS011;20410;55.578;12.968;2023-04-25T11:51:37;12.87;;;3.43;;
34134;SDS011;20410;55.578;12.968;2023-04-25T11:54:04;10.57;;;3.87;;
34134;SDS011;20410;55.578;12.968;2023-04-25T11:56:30;8.20;;;3.40;;
34134;SDS011;20410;55.578;12.968;2023-04-25T11:58:57;12.73;;;4.03;;
34134;SDS011;20410;55.578;12.968;2023-04-25T12:01:31;11.27;;;3.60;;
34134;SDS011;20410;55.578;12.968;2023-04-25T12:03:59;10.27;;;3.83;;
34134;SDS011;20410;55.578;12.968;2023-04-25T12:06:44;13.63;;;3.67;;
34134;SDS011;20410;55.578;12.968;2023-04-25T12:09:13;11.00;;;3.43;;
34134;SDS011;20410;55.578;12.968;2023-04-25T12:11:47;11.20;;;3.20;;
34134;SDS011;20410;55.578;12.968;2023-04-25T12:14:48;10.30;;;3.37;;
34134;SDS011;20410;55.578;12.968;2023-04-25T12:17:12;9.37;;;3.50;;
34134;SDS011;20410;55.578;12.968;2023-04-25T12:19:38;8.87;;;2.80;;
34134;SDS011;20410;55.578;12.968;2023-04-25T12:22:19;7.97;;;3.03;;
34134;SDS011;20410;55.578;12.968;2023-04-25T12:24:46;7.07;;;3.20;;
34134;SDS011;20410;55.578;12.968;2023-04-25T12:27:13;9.70;;;3.43;;
34134;SDS011;20410;55.578;12.968;2023-04-25T12:29:53;12.80;;;3.13;;
34134;SDS011;20410;55.578;12.968;2023-04-25T12:32:20;12.37;;;3.43;;
34134;SDS011;20410;55.578;12.968;2023-04-25T12:34:46;8.93;;;3.47;;
34134;SDS011;20410;55.578;12.968;2023-04-25T12:37:12;6.03;;;2.60;;
34134;SDS011;20410;55.578;12.968;2023-04-25T12:39:38;6.50;;;2.53;;
34134;SDS011;20410;55.578;12.968;2023-04-25T12:42:04;10.20;;;3.00;;
34134;SDS011;20410;55.578;12.968;2023-04-25T12:44:30;9.13;;;2.53;;
34134;SDS011;20410;55.578;12.968;2023-04-25T12:46:55;9.40;;;3.17;;
34134;SDS011;20410;55.578;12.968;2023-04-25T12:49:21;7.87;;;2.87;;
34134;SDS011;20410;55.578;12.968;2023-04-25T12:51:47;7.77;;;2.80;;
34134;SDS011;20410;55.578;12.968;2023-04-25T12:54:12;7.77;;;2.80;;
34134;SDS011;20410;55.578;12.968;2023-04-25T12:56:39;8.60;;;3.03;;
34134;SDS011;20410;55.578;12.968;2023-04-25T12:59:06;8.73;;;3.13;;
34134;SDS011;20410;55.578;12.968;2023-04-25T13:01:32;8.20;;;2.93;;
34134;SDS011;20410;55.578;12.968;2023-04-25T13:03:58;7.50;;;3.17;;
34134;SDS011;20410;55.578;12.968;2023-04-25T13:06:24;8.13;;;2.77;;
34134;SDS011;20410;55.578;12.968;2023-04-25T13:08:49;7.97;;;2.20;;
34134;SDS011;20410;55.578;12.968;2023-04-25T13:11:15;7.60;;;2.40;;
34134;SDS011;20410;55.578;12.968;2023-04-25T13:13:41;8.17;;;2.57;;
34134;SDS011;20410;55.578;12.968;2023-04-25T13:16:07;5.67;;;2.20;;
34134;SDS011;20410;55.578;12.968;2023-04-25T13:18:33;6.63;;;2.70;;
34134;SDS011;20410;55.578;12.968;2023-04-25T13:20:59;7.33;;;2.80;;
34134;SDS011;20410;55.578;12.968;2023-04-25T13:23:26;8.83;;;2.57;;
34134;SDS011;20410;55.578;12.968;2023-04-25T13:25:53;6.07;;;2.40;;
34134;SDS011;20410;55.578;12.968;2023-04-25T13:28:20;8.53;;;3.57;;
34134;SDS011;20410;55.578;12.968;2023-04-25T13:30:46;8.40;;;2.77;;
34134;SDS011;20410;55.578;12.968;2023-04-25T13:33:13;8.27;;;3.20;;
34134;SDS011;20410;55.578;12.968;2023-04-25T13:35:39;7.77;;;2.73;;
34134;SDS011;20410;55.578;12.968;2023-04-25T13:38:05;10.63;;;3.50;;
34134;SDS011;20410;55.578;12.968;2023-04-25T13:40:31;11.47;;;3.30;;
34134;SDS011;20410;55.578;12.968;2023-04-25T13:42:57;7.43;;;3.57;;
34134;SDS011;20410;55.578;12.968;2023-04-25T13:45:23;8.07;;;2.77;;
34134;SDS011;20410;55.578;12.968;2023-04-25T13:47:48;9.87;;;2.77;;
34134;SDS011;20410;55.578;12.968;2023-04-25T13:50:14;9.10;;;2.67;;
34134;SDS011;20410;55.578;12.968;2023-04-25T13:52:40;9.03;;;3.30;;
34134;SDS011;20410;55.578;12.968;2023-04-25T13:55:06;7.90;;;3.00;;
34134;SDS011;20410;55.578;12.968;2023-04-25T13:57:33;9.90;;;3.20;;
34134;SDS011;20410;55.578;12.968;2023-04-25T13:59:59;7.17;;;2.93;;
34134;SDS011;20410;55.578;12.968;2023-04-25T14:02:29;7.87;;;2.53;;
34134;SDS011;20410;55.578;12.968;2023-04-25T14:04:55;6.53;;;3.10;;
34134;SDS011;20410;55.578;12.968;2023-04-25T14:07:21;6.67;;;3.30;;
34134;SDS011;20410;55.578;12.968;2023-04-25T14:09:46;7.90;;;2.93;;
34134;SDS011;20410;55.578;12.968;2023-04-25T14:12:12;5.93;;;2.80;;
34134;SDS011;20410;55.578;12.968;2023-04-25T14:14:37;6.40;;;3.80;;
34134;SDS011;20410;55.578;12.968;2023-04-25T14:17:03;7.40;;;2.40;;
34134;SDS011;20410;55.578;12.968;2023-04-25T14:19:29;8.80;;;2.43;;
34134;SDS011;20410;55.578;12.968;2023-04-25T14:21:55;4.53;;;2.07;;
34134;SDS011;20410;55.578;12.968;2023-04-25T14:24:20;8.00;;;2.77;;
34134;SDS011;20410;55.578;12.968;2023-04-25T14:26:46;9.67;;;3.10;;
34134;SDS011;20410;55.578;12.968;2023-04-25T14:29:12;6.73;;;2.57;;
34134;SDS011;20410;55.578;12.968;2023-04-25T14:31:38;8.60;;;2.70;;